Kosmos, Washington
Current Conditions -  °F | °C
As of 7:55 PM on Sunday 23 Nov 2014 (Local Time) from KCLS Reporting Station
NA  
Wind Chill: 38°   Ceiling: NA
Heat Index: 41°   Visibility: 10mi
Dew Point: 41°   Wind: 5mph
Humidity: 100%   Direction: 240°WSW
Pressure: 30.32"   Gusts: NA
Location:  46.5485°N, 122.112°W
Report Text: KCLS 240355Z AUTO 24004KT 10SM 05/05 A3032 RMK AO2
Loading
Personal Weather Stations






























Interactive Weather Map New forecast layout! Learn more

10-Day Weather Forecast

Advertisements
Track Severe Weather on mobile